createdAt,value
2023-12-24T00:02:14.402Z,99638.88
2023-12-24T00:04:43.289Z,99637.44
2023-12-24T00:07:10.970Z,99629.69
2023-12-24T00:09:38.607Z,99605.25
2023-12-24T00:12:07.420Z,99601.56
2023-12-24T00:14:35.415Z,99638.66
2023-12-24T00:17:04.837Z,99650.66
2023-12-24T00:19:32.467Z,99625.69
2023-12-24T00:22:00.220Z,99627.28
2023-12-24T00:24:27.878Z,99621.00
2023-12-24T00:26:55.533Z,99615.94
2023-12-24T00:29:23.154Z,99621.25
2023-12-24T00:31:50.746Z,99622.06
2023-12-24T00:34:19.769Z,99617.19
2023-12-24T00:36:47.734Z,99614.16
2023-12-24T00:39:15.293Z,99603.78
2023-12-24T00:41:42.928Z,99601.47
2023-12-24T00:44:10.585Z,99593.19
2023-12-24T00:46:37.233Z,99589.50
2023-12-24T00:49:06.194Z,99597.84
2023-12-24T00:51:35.300Z,99587.66
2023-12-24T00:54:02.891Z,99581.78
2023-12-24T00:56:30.535Z,99585.44
2023-12-24T00:58:58.245Z,99569.59
2023-12-24T01:01:25.961Z,99559.59
2023-12-24T01:03:53.985Z,99568.34
2023-12-24T01:06:21.735Z,99571.84
2023-12-24T01:08:50.707Z,99559.22
2023-12-24T01:11:18.428Z,99555.75
2023-12-24T01:13:46.073Z,99563.06
2023-12-24T01:16:13.627Z,99563.69
2023-12-24T01:18:41.624Z,99558.59
2023-12-24T01:21:09.342Z,99570.81
2023-12-24T01:23:37.260Z,99561.88
2023-12-24T01:26:06.885Z,99550.88
2023-12-24T01:28:34.568Z,99566.34
2023-12-24T01:31:02.420Z,99563.31
2023-12-24T01:33:30.136Z,99567.38
2023-12-24T01:35:57.758Z,99571.84
2023-12-24T01:38:25.494Z,99555.78
2023-12-24T01:40:53.146Z,99553.75
2023-12-24T01:43:22.101Z,99553.34
2023-12-24T01:45:50.064Z,99549.28
2023-12-24T01:48:18.535Z,99544.00
2023-12-24T01:50:48.010Z,99532.41
2023-12-24T01:53:18.495Z,99534.03
2023-12-24T01:55:49.836Z,99534.22
2023-12-24T01:58:17.600Z,99524.84
2023-12-24T02:00:48.162Z,99515.03
2023-12-24T02:03:17.130Z,99508.94
2023-12-24T02:05:47.303Z,99518.28
2023-12-24T02:08:15.996Z,99505.84
2023-12-24T02:10:44.452Z,99513.38
2023-12-24T02:13:13.115Z,99506.84
2023-12-24T02:15:40.777Z,99495.00
2023-12-24T02:18:10.244Z,99495.00
2023-12-24T02:20:37.940Z,99496.97
2023-12-24T02:23:07.096Z,99482.72
2023-12-24T02:25:34.765Z,99481.44
2023-12-24T02:28:08.330Z,99477.75
2023-12-24T02:30:40.327Z,99467.41
2023-12-24T02:33:10.315Z,99476.22
2023-12-24T02:35:39.875Z,99472.00
2023-12-24T02:38:09.072Z,99467.09
2023-12-24T02:40:36.646Z,99477.84
2023-12-24T02:43:04.563Z,99478.25
2023-12-24T02:45:32.140Z,99473.88
2023-12-24T02:47:59.919Z,99478.22
2023-12-24T02:50:27.637Z,99470.72
2023-12-24T02:52:55.415Z,99460.19
2023-12-24T02:55:26.184Z,99461.38
2023-12-24T02:57:53.832Z,99459.53
2023-12-24T03:00:21.606Z,99471.38
2023-12-24T03:02:49.406Z,99457.81
2023-12-24T03:05:17.335Z,99459.56
2023-12-24T03:07:45.073Z,99458.38
2023-12-24T03:10:12.698Z,99448.34
2023-12-24T03:12:41.622Z,99450.31
2023-12-24T03:15:12.145Z,99447.44
2023-12-24T03:17:40.072Z,99441.28
2023-12-24T03:20:09.975Z,99443.25
2023-12-24T03:22:37.579Z,99438.38
2023-12-24T03:25:05.944Z,99452.41
2023-12-24T03:27:33.509Z,99449.75
2023-12-24T03:30:03.971Z,99441.31
2023-12-24T03:32:31.855Z,99435.53
2023-12-24T03:35:00.977Z,99423.94
2023-12-24T03:37:28.670Z,99430.88
2023-12-24T03:39:56.311Z,99439.91
2023-12-24T03:42:23.882Z,99425.53
2023-12-24T03:44:51.567Z,99430.09
2023-12-24T03:47:20.580Z,99430.41
2023-12-24T03:49:48.228Z,99436.56
2023-12-24T03:52:15.895Z,99432.41
2023-12-24T03:54:43.786Z,99415.97
2023-12-24T03:57:11.402Z,99425.81
2023-12-24T03:59:40.236Z,99416.06
2023-12-24T04:02:07.915Z,99415.81
2023-12-24T04:04:35.883Z,99422.31
2023-12-24T04:07:04.288Z,99423.81
2023-12-24T04:09:32.862Z,99425.56
2023-12-24T04:12:00.728Z,99427.09
2023-12-24T04:14:28.321Z,99423.72
2023-12-24T04:16:55.946Z,99420.03
2023-12-24T04:19:23.657Z,99421.66
2023-12-24T04:21:52.653Z,99415.28
2023-12-24T04:24:20.278Z,99417.56
2023-12-24T04:26:47.879Z,99411.78
2023-12-24T04:29:16.081Z,99417.13
2023-12-24T04:31:44.135Z,99408.94
2023-12-24T04:34:12.454Z,99401.13
2023-12-24T04:36:40.110Z,99407.09
2023-12-24T04:39:09.146Z,99404.19
2023-12-24T04:41:37.861Z,99397.00
2023-12-24T04:44:06.337Z,99405.25
2023-12-24T04:46:34.025Z,99407.53
2023-12-24T04:49:01.638Z,99412.63
2023-12-24T04:51:29.295Z,99412.16
2023-12-24T04:53:56.901Z,99406.03
2023-12-24T04:56:25.962Z,99398.03
2023-12-24T04:58:54.579Z,99406.84
2023-12-24T05:01:25.478Z,99401.75
2023-12-24T05:03:53.588Z,99393.31
2023-12-24T05:06:22.288Z,99404.44
2023-12-24T05:08:50.006Z,99402.91
2023-12-24T05:11:17.650Z,99392.03
2023-12-24T05:13:46.611Z,99403.50
2023-12-24T05:16:14.644Z,99395.50
2023-12-24T05:18:42.372Z,99393.31
2023-12-24T05:21:10.097Z,99380.56
2023-12-24T05:23:37.789Z,99390.19
2023-12-24T05:26:05.578Z,99392.72
2023-12-24T05:28:33.195Z,99393.16
2023-12-24T05:31:02.348Z,99380.09
2023-12-24T05:33:30.384Z,99384.97
2023-12-24T05:35:58.124Z,99384.50
2023-12-24T05:38:25.945Z,99384.50
2023-12-24T05:40:53.733Z,99372.69
2023-12-24T05:43:21.348Z,99374.78
2023-12-24T05:45:49.220Z,99370.25
2023-12-24T05:48:18.371Z,99370.16
2023-12-24T05:50:46.127Z,99379.75
2023-12-24T05:53:13.875Z,99365.13
2023-12-24T05:55:42.045Z,99372.66
2023-12-24T05:58:09.673Z,99368.06
2023-12-24T06:00:37.547Z,99358.88
2023-12-24T06:03:05.644Z,99361.81
2023-12-24T06:05:34.690Z,99364.00
2023-12-24T06:08:02.432Z,99363.19
2023-12-24T06:10:30.048Z,99363.41
2023-12-24T06:12:57.665Z,99348.38
2023-12-24T06:15:25.213Z,99358.31
2023-12-24T06:17:52.960Z,99367.59
2023-12-24T06:20:20.951Z,99351.03
2023-12-24T06:22:50.296Z,99346.16
2023-12-24T06:25:19.208Z,99346.75
2023-12-24T06:27:46.905Z,99343.34
2023-12-24T06:30:15.305Z,99345.00
2023-12-24T06:32:45.130Z,99343.97
2023-12-24T06:35:12.930Z,99335.16
2023-12-24T06:37:40.631Z,99332.03
2023-12-24T06:40:11.274Z,99343.72
2023-12-24T06:42:38.948Z,99336.28
2023-12-24T06:45:07.686Z,99330.94
2023-12-24T06:47:35.439Z,99329.00
2023-12-24T06:50:03.780Z,99327.25
2023-12-24T06:52:31.391Z,99319.72
2023-12-24T06:54:59.048Z,99326.78
2023-12-24T06:57:27.937Z,99320.16
2023-12-24T06:59:56.092Z,99323.91
2023-12-24T07:02:23.757Z,99314.19
2023-12-24T07:04:51.424Z,99318.22
2023-12-24T07:07:19.030Z,99311.59
2023-12-24T07:09:47.587Z,99311.59
2023-12-24T07:12:15.141Z,99310.31
2023-12-24T07:14:44.142Z,99309.84
2023-12-24T07:17:11.807Z,99314.84
2023-12-24T07:19:39.425Z,99298.03
2023-12-24T07:22:07.005Z,99306.63
2023-12-24T07:24:34.636Z,99296.78
2023-12-24T07:27:02.239Z,99305.34
2023-12-24T07:29:29.844Z,99311.97
2023-12-24T07:31:58.797Z,99303.94
2023-12-24T07:34:26.505Z,99301.94
2023-12-24T07:36:54.202Z,99303.25
2023-12-24T07:39:21.834Z,99300.34
2023-12-24T07:41:49.488Z,99296.63
2023-12-24T07:44:17.794Z,99303.59
2023-12-24T07:46:46.245Z,99294.38
2023-12-24T07:49:15.288Z,99291.16
2023-12-24T07:51:43.182Z,99289.22
2023-12-24T07:54:10.806Z,99283.91
2023-12-24T07:56:38.477Z,99290.47
2023-12-24T07:59:06.168Z,99280.84
2023-12-24T08:01:33.808Z,99280.84
2023-12-24T08:04:01.434Z,99283.25
2023-12-24T08:06:30.489Z,99279.06
2023-12-24T08:08:58.336Z,99279.91
2023-12-24T08:11:26.095Z,99279.41
2023-12-24T08:13:55.195Z,99283.13
2023-12-24T08:16:22.864Z,99273.06
2023-12-24T08:18:50.611Z,99295.63
2023-12-24T08:21:18.349Z,99279.91
2023-12-24T08:23:47.376Z,99278.84
2023-12-24T08:26:15.320Z,99276.28
2023-12-24T08:28:43.109Z,99280.31
2023-12-24T08:31:11.602Z,99299.81
2023-12-24T08:33:39.579Z,99278.00
2023-12-24T08:36:09.118Z,99268.44
2023-12-24T08:38:36.921Z,99281.56
2023-12-24T08:41:06.038Z,99282.94
2023-12-24T08:43:34.126Z,99283.66
2023-12-24T08:46:04.401Z,99274.72
2023-12-24T08:48:32.252Z,99276.22
2023-12-24T08:51:02.016Z,99265.09
2023-12-24T08:53:29.750Z,99258.72
2023-12-24T08:55:57.417Z,99262.16
2023-12-24T08:58:26.370Z,99256.03
2023-12-24T09:00:54.804Z,99256.03
2023-12-24T09:03:22.453Z,99259.59
2023-12-24T09:05:50.191Z,99265.72
2023-12-24T09:08:16.940Z,99264.19
2023-12-24T09:10:44.597Z,99268.03
2023-12-24T09:13:12.167Z,99261.41
2023-12-24T09:15:41.129Z,99268.84
2023-12-24T09:18:08.894Z,99267.22
2023-12-24T09:20:36.659Z,99265.69
2023-12-24T09:23:03.734Z,99264.06
2023-12-24T09:25:31.357Z,99261.13
2023-12-24T09:27:59.015Z,99266.72
2023-12-24T09:30:26.679Z,99267.88
2023-12-24T09:32:56.037Z,99271.09
2023-12-24T09:35:23.870Z,99265.03
2023-12-24T09:37:51.524Z,99255.03
2023-12-24T09:40:19.145Z,99256.38
2023-12-24T09:42:46.769Z,99261.00
2023-12-24T09:45:14.908Z,99246.06
2023-12-24T09:47:42.563Z,99243.47
2023-12-24T09:50:11.884Z,99248.06
2023-12-24T09:52:39.586Z,99243.31
2023-12-24T09:55:08.111Z,99251.63
2023-12-24T09:57:35.768Z,99266.84
2023-12-24T10:00:05.366Z,99270.63
2023-12-24T10:02:34.810Z,99258.16
2023-12-24T10:05:04.402Z,99248.22
2023-12-24T10:07:38.797Z,99243.13
2023-12-24T10:10:08.145Z,99252.28
2023-12-24T10:12:35.793Z,99252.59
2023-12-24T10:15:03.726Z,99252.66
2023-12-24T10:17:32.374Z,99255.66
2023-12-24T10:20:01.110Z,99246.53
2023-12-24T10:22:28.720Z,99240.69
2023-12-24T10:25:03.084Z,99242.81
2023-12-24T10:27:31.113Z,99228.50
2023-12-24T10:30:11.818Z,99237.53
2023-12-24T10:32:40.572Z,99225.25
2023-12-24T10:35:09.231Z,99236.81
2023-12-24T10:37:37.049Z,99225.66
2023-12-24T10:40:11.070Z,99208.88
2023-12-24T10:42:39.117Z,99206.53
2023-12-24T10:45:07.581Z,99196.34
2023-12-24T10:47:36.718Z,99204.41
2023-12-24T10:50:05.073Z,99195.81
2023-12-24T10:52:32.935Z,99201.19
2023-12-24T10:55:03.480Z,99197.78
2023-12-24T10:57:42.402Z,99209.28
2023-12-24T11:00:12.648Z,99205.72
2023-12-24T11:02:45.361Z,99197.78
2023-12-24T11:05:13.386Z,99195.09
2023-12-24T11:07:49.141Z,99189.03
2023-12-24T11:10:40.174Z,99174.31
2023-12-24T11:13:45.941Z,99177.06
2023-12-24T11:16:42.641Z,99161.84
2023-12-24T11:19:24.857Z,99159.22
2023-12-24T11:22:10.767Z,99165.88
2023-12-24T11:24:51.686Z,99153.34
2023-12-24T11:27:22.282Z,99151.78
2023-12-24T11:29:50.758Z,99145.66
2023-12-24T11:32:39.276Z,99144.66
2023-12-24T11:35:08.157Z,99150.00
2023-12-24T11:37:37.336Z,99136.88
2023-12-24T11:40:09.758Z,99142.53
2023-12-24T11:42:42.459Z,99142.53
2023-12-24T11:45:19.741Z,99147.88
2023-12-24T11:47:49.182Z,99157.59
2023-12-24T11:50:16.933Z,99156.47
2023-12-24T11:52:45.409Z,99156.94
2023-12-24T11:55:16.509Z,99149.50
2023-12-24T11:57:44.385Z,99138.81
2023-12-24T12:00:15.037Z,99133.47
2023-12-24T12:02:44.062Z,99123.38
2023-12-24T12:05:13.158Z,99114.59
2023-12-24T12:07:40.818Z,99116.63
2023-12-24T12:10:09.433Z,99105.03
2023-12-24T12:12:37.014Z,99111.19
2023-12-24T12:15:05.161Z,99098.31
2023-12-24T12:17:32.950Z,99096.50
2023-12-24T12:20:00.642Z,99084.69
2023-12-24T12:22:29.915Z,99074.81
2023-12-24T12:24:57.547Z,99073.81
2023-12-24T12:27:25.739Z,99065.56
2023-12-24T12:29:53.382Z,99072.81
2023-12-24T12:32:20.965Z,99066.34
2023-12-24T12:34:48.622Z,99081.88
2023-12-24T12:37:16.239Z,99067.16
2023-12-24T12:39:45.169Z,99072.31
2023-12-24T12:42:12.835Z,99079.78
2023-12-24T12:44:40.543Z,99064.28
2023-12-24T12:47:08.151Z,99064.34
2023-12-24T12:49:35.791Z,99055.22
2023-12-24T12:52:03.591Z,99060.41
2023-12-24T12:54:31.226Z,99063.81
2023-12-24T12:57:00.283Z,99065.41
2023-12-24T12:59:28.055Z,99053.13
2023-12-24T13:01:56.299Z,99046.47
2023-12-24T13:04:27.987Z,99049.41
2023-12-24T13:06:59.300Z,99047.06
2023-12-24T13:09:27.498Z,99041.44
2023-12-24T13:12:07.077Z,99045.72
2023-12-24T13:14:35.060Z,99043.06
2023-12-24T13:17:10.308Z,99050.25
2023-12-24T13:19:39.993Z,99036.41
2023-12-24T13:22:07.681Z,99041.75
2023-12-24T13:24:35.748Z,99030.53
2023-12-24T13:27:05.218Z,99032.94
2023-12-24T13:29:36.356Z,99022.75
2023-12-24T13:32:04.683Z,99026.50
2023-12-24T13:34:33.463Z,98995.25
2023-12-24T13:37:01.341Z,99016.91
2023-12-24T13:39:29.876Z,99016.63
2023-12-24T13:41:57.810Z,99014.28
2023-12-24T13:44:25.491Z,99031.38
2023-12-24T13:46:54.621Z,99012.13
2023-12-24T13:49:22.379Z,99008.13
2023-12-24T13:51:50.044Z,98993.97
2023-12-24T13:54:17.615Z,98986.53
2023-12-24T13:56:45.305Z,98987.03
2023-12-24T13:59:13.056Z,98983.81
2023-12-24T14:01:42.008Z,98995.31
2023-12-24T14:04:11.180Z,98994.03
2023-12-24T14:06:39.383Z,99003.94
2023-12-24T14:09:07.070Z,99003.13
2023-12-24T14:11:34.698Z,98992.97
2023-12-24T14:14:02.315Z,98991.41
2023-12-24T14:16:31.575Z,98995.69
2023-12-24T14:18:59.273Z,98989.53
2023-12-24T14:21:28.349Z,98972.38
2023-12-24T14:23:55.991Z,98973.72
2023-12-24T14:26:23.629Z,98967.03
2023-12-24T14:28:51.187Z,98954.47
2023-12-24T14:31:18.860Z,98955.53
2023-12-24T14:33:46.522Z,98953.69
2023-12-24T14:36:14.157Z,98949.44
2023-12-24T14:38:43.076Z,98949.72
2023-12-24T14:41:10.689Z,98955.84
2023-12-24T14:43:38.333Z,98946.53
2023-12-24T14:46:06.186Z,98941.19
2023-12-24T14:48:37.183Z,98931.53
2023-12-24T14:51:10.029Z,98931.25
2023-12-24T14:53:38.413Z,98923.81
2023-12-24T14:56:11.401Z,98931.56
2023-12-24T14:58:39.077Z,98918.69
2023-12-24T15:01:09.701Z,98919.53
2023-12-24T15:03:37.427Z,98917.13
2023-12-24T15:06:06.226Z,98916.63
2023-12-24T15:08:33.921Z,98918.75
2023-12-24T15:11:02.060Z,98932.66
2023-12-24T15:13:31.046Z,98918.19
2023-12-24T15:15:58.594Z,98927.59
2023-12-24T15:18:26.312Z,98918.75
2023-12-24T15:20:54.142Z,98921.69
2023-12-24T15:23:22.642Z,98910.44
2023-12-24T15:25:50.272Z,98892.25
2023-12-24T15:28:20.367Z,98894.19
2023-12-24T15:30:50.154Z,98895.75
2023-12-24T15:33:17.961Z,98887.75
2023-12-24T15:35:45.855Z,98897.63
2023-12-24T15:38:13.453Z,98899.75
2023-12-24T15:40:41.064Z,98893.06
2023-12-24T15:43:08.700Z,98883.72
2023-12-24T15:45:39.708Z,98878.88
2023-12-24T15:48:10.359Z,98870.63
2023-12-24T15:50:38.196Z,98862.84
2023-12-24T15:53:05.789Z,98859.94
2023-12-24T15:55:33.555Z,98850.84
2023-12-24T15:58:01.109Z,98868.78
2023-12-24T16:00:29.049Z,98865.81
2023-12-24T16:02:56.904Z,98858.31
2023-12-24T16:05:27.966Z,98862.63
2023-12-24T16:07:55.659Z,98850.88
2023-12-24T16:10:23.394Z,98869.59
2023-12-24T16:12:52.544Z,98850.56
2023-12-24T16:15:20.314Z,98861.84
2023-12-24T16:17:48.132Z,98857.84
2023-12-24T16:20:16.993Z,98852.47
2023-12-24T16:22:45.967Z,98846.56
2023-12-24T16:25:13.908Z,98852.22
2023-12-24T16:27:41.466Z,98850.34
2023-12-24T16:30:10.374Z,98859.97
2023-12-24T16:32:38.314Z,98863.72
2023-12-24T16:35:06.631Z,98846.03
2023-12-24T16:37:34.292Z,98858.09
2023-12-24T16:40:03.642Z,98865.34
2023-12-24T16:42:31.221Z,98858.38
2023-12-24T16:44:58.923Z,98851.44
2023-12-24T16:47:26.646Z,98845.00
2023-12-24T16:49:54.544Z,98852.25
2023-12-24T16:52:22.158Z,98870.16
2023-12-24T16:54:49.781Z,98862.66
2023-12-24T16:57:18.791Z,98864.28
2023-12-24T16:59:46.415Z,98860.53
2023-12-24T17:02:14.116Z,98873.94
2023-12-24T17:04:41.784Z,98873.94
2023-12-24T17:07:09.444Z,98848.53
2023-12-24T17:09:37.834Z,98869.66
2023-12-24T17:12:07.113Z,98897.50
2023-12-24T17:14:36.061Z,98881.44
2023-12-24T17:17:03.826Z,98873.94
2023-12-24T17:19:31.537Z,98880.94
2023-12-24T17:21:59.135Z,98883.31
2023-12-24T17:24:26.722Z,98871.81
2023-12-24T17:26:54.467Z,98877.19
2023-12-24T17:29:22.433Z,98875.06
2023-12-24T17:31:52.549Z,98850.72
2023-12-24T17:34:20.275Z,98855.81
2023-12-24T17:36:47.853Z,98868.13
2023-12-24T17:39:16.046Z,98847.25
2023-12-24T17:41:43.883Z,98858.50
2023-12-24T17:44:11.556Z,98860.63
2023-12-24T17:46:39.215Z,98868.94
2023-12-24T17:49:08.991Z,98848.34
2023-12-24T17:51:40.150Z,98844.06
2023-12-24T17:54:07.813Z,98845.69
2023-12-24T17:56:35.715Z,98848.34
2023-12-24T17:59:03.348Z,98844.06
2023-12-24T18:01:30.924Z,98847.28
2023-12-24T18:03:58.571Z,98835.50
2023-12-24T18:06:27.575Z,98860.16
2023-12-24T18:08:55.256Z,98874.06
2023-12-24T18:11:23.027Z,98889.63
2023-12-24T18:13:50.652Z,98877.84
2023-12-24T18:16:18.269Z,98869.50
2023-12-24T18:18:46.237Z,98909.16
2023-12-24T18:21:13.870Z,98903.03
2023-12-24T18:23:44.467Z,98883.19
2023-12-24T18:26:16.026Z,98935.16
2023-12-24T18:28:43.984Z,98909.16
2023-12-24T18:31:11.845Z,98921.22
2023-12-24T18:33:40.119Z,98930.84
2023-12-24T18:36:08.132Z,98934.56
2023-12-24T18:38:37.218Z,98918.44
2023-12-24T18:41:06.425Z,98923.75
2023-12-24T18:43:34.048Z,98932.75
2023-12-24T18:46:05.018Z,98948.50
2023-12-24T18:48:32.769Z,98931.03
2023-12-24T18:51:00.609Z,98947.31
2023-12-24T18:53:28.326Z,98941.72
2023-12-24T18:55:56.106Z,98957.50
2023-12-24T18:58:25.016Z,98958.59
2023-12-24T19:00:52.625Z,98960.22
2023-12-24T19:03:20.360Z,98981.94
2023-12-24T19:05:47.993Z,98941.28
2023-12-24T19:08:15.628Z,98947.97
2023-12-24T19:10:43.673Z,98949.84
2023-12-24T19:13:11.318Z,98955.25
2023-12-24T19:15:41.492Z,98946.16
2023-12-24T19:18:09.482Z,98958.19
2023-12-24T19:20:37.222Z,98940.28
2023-12-24T19:23:05.243Z,98943.50
2023-12-24T19:25:32.960Z,98954.75
2023-12-24T19:28:00.566Z,98962.03
2023-12-24T19:30:28.325Z,98964.44
2023-12-24T19:32:57.568Z,98958.59
2023-12-24T19:35:25.584Z,98958.59
2023-12-24T19:37:53.249Z,98943.88
2023-12-24T19:40:20.876Z,98939.28
2023-12-24T19:42:48.481Z,98947.63
2023-12-24T19:45:16.171Z,98941.72
2023-12-24T19:47:43.989Z,98966.63
2023-12-24T19:50:13.323Z,98954.31
2023-12-24T19:52:41.053Z,98976.28
2023-12-24T19:55:09.494Z,98961.28
2023-12-24T19:57:37.223Z,98967.44
2023-12-24T20:00:05.402Z,99000.91
2023-12-24T20:02:40.377Z,98965.56
2023-12-24T20:05:08.780Z,98970.91
2023-12-24T20:07:37.718Z,98969.31
2023-12-24T20:10:06.128Z,98971.41
2023-12-24T20:12:34.097Z,98984.28
2023-12-24T20:15:01.961Z,98983.47
2023-12-24T20:17:29.565Z,98983.16
2023-12-24T20:19:57.572Z,98983.16
2023-12-24T20:22:25.613Z,98985.06
2023-12-24T20:24:54.864Z,98981.81
2023-12-24T20:27:23.020Z,98984.78
2023-12-24T20:29:51.915Z,98989.56
2023-12-24T20:32:19.984Z,98991.72
2023-12-24T20:34:48.194Z,98991.16
2023-12-24T20:37:15.874Z,98999.13
2023-12-24T20:39:43.645Z,99005.53
2023-12-24T20:42:12.658Z,98996.72
2023-12-24T20:44:41.309Z,98993.78
2023-12-24T20:47:09.472Z,98997.47
2023-12-24T20:49:38.027Z,98992.66
2023-12-24T20:52:07.999Z,99006.53
2023-12-24T20:54:35.616Z,98991.03
2023-12-24T20:57:03.904Z,98990.50
2023-12-24T20:59:32.962Z,98998.22
2023-12-24T21:02:00.604Z,98997.94
2023-12-24T21:04:28.192Z,98991.78
2023-12-24T21:06:55.854Z,99002.72
2023-12-24T21:09:23.446Z,98993.06
2023-12-24T21:11:51.151Z,99008.88
2023-12-24T21:14:18.840Z,98999.19
2023-12-24T21:16:47.825Z,99015.53
2023-12-24T21:19:15.438Z,99023.28
2023-12-24T21:21:43.269Z,99012.59
2023-12-24T21:24:10.854Z,99009.38
2023-12-24T21:26:39.474Z,99018.47
2023-12-24T21:29:07.277Z,99034.53
2023-12-24T21:31:35.077Z,99045.75
2023-12-24T21:34:04.234Z,99044.97
2023-12-24T21:36:31.939Z,99044.97
2023-12-24T21:38:59.655Z,99047.38
2023-12-24T21:41:27.578Z,99046.31
2023-12-24T21:43:55.690Z,99055.59
2023-12-24T21:46:23.882Z,99070.06
2023-12-24T21:48:51.626Z,99061.25
2023-12-24T21:51:21.005Z,99077.56
2023-12-24T21:53:48.609Z,99081.00
2023-12-24T21:56:16.358Z,99088.47
2023-12-24T21:58:44.046Z,99083.06
2023-12-24T22:01:18.439Z,99107.34
2023-12-24T22:03:49.983Z,99096.91
2023-12-24T22:06:17.822Z,99101.44
2023-12-24T22:08:46.852Z,99105.19
2023-12-24T22:11:14.648Z,99095.00
2023-12-24T22:13:42.363Z,99097.09
2023-12-24T22:16:13.973Z,99107.19
2023-12-24T22:18:41.839Z,99113.09
2023-12-24T22:21:09.943Z,99121.63
2023-12-24T22:23:39.452Z,99128.03
2023-12-24T22:26:11.994Z,99128.03
2023-12-24T22:28:40.281Z,99126.97
2023-12-24T22:31:08.750Z,99129.69
2023-12-24T22:33:38.579Z,99138.28
2023-12-24T22:36:07.182Z,99132.66
2023-12-24T22:38:34.898Z,99122.53
2023-12-24T22:41:02.445Z,99114.75
2023-12-24T22:43:31.399Z,99167.72
2023-12-24T22:45:59.042Z,99124.44
2023-12-24T22:48:26.628Z,99125.50
2023-12-24T22:50:54.298Z,99119.91
2023-12-24T22:53:22.089Z,99123.09
2023-12-24T22:55:50.791Z,99149.88
2023-12-24T22:58:18.506Z,99149.56
2023-12-24T23:00:47.866Z,99146.84
2023-12-24T23:03:15.812Z,99148.66
2023-12-24T23:05:44.021Z,99156.16
2023-12-24T23:08:11.972Z,99150.28
2023-12-24T23:10:39.898Z,99145.38
2023-12-24T23:13:07.613Z,99155.81
2023-12-24T23:15:35.685Z,99158.72
2023-12-24T23:18:05.314Z,99135.75
2023-12-24T23:20:33.288Z,99142.91
2023-12-24T23:23:00.879Z,99164.28
2023-12-24T23:25:28.629Z,99184.34
2023-12-24T23:27:56.473Z,99145.81
2023-12-24T23:30:24.330Z,99149.75
2023-12-24T23:32:52.153Z,99140.44
2023-12-24T23:35:21.833Z,99149.75
2023-12-24T23:37:49.629Z,99139.13
2023-12-24T23:40:17.326Z,99150.56
2023-12-24T23:42:44.860Z,99138.75
2023-12-24T23:45:12.447Z,99156.69
2023-12-24T23:47:40.631Z,99152.44
2023-12-24T23:50:09.018Z,99155.38
2023-12-24T23:52:37.904Z,99145.50
2023-12-24T23:55:06.285Z,99157.81
2023-12-24T23:57:33.846Z,99157.31
